Startpagina
METAR-TAF:

METAR-TAF

Vliegvelden :

Lynden Pindling International Airport

Nassau, Bahama's

breedte: 25-03N, lengte: 077-28W, hoogte: 3 m

Actueel weer

Dit bericht is 39 minuten geleden gemaakt, om 08:00 UTC
Wind 1 kt uit variabele richting
Temperatuur 25°C
Vochtigheid 89%
Druk 1014 hPa
Zicht 10 km of meer
Weinig wolken op 1800 ft

METAR: MYNN 230800Z VRB01KT 9999 FEW018 25/23 A2994

Tijdstip: 04:39 (08:39 UTC)

Verwachting

Dit bericht is 4 uur en het 9 minuten geleden gemaakt, om 04:30 UTC
Verwachting geldig van 23 om 06 UTC tot 24 om 06 UTC
Wind 2 kt uit variabele richting
Zicht 10 km of meer
Weinig wolken op 1500 ft, Cumulonimbus.
Wijzigt naar
van 23 om 12 UTC tot 23 om 14 UTC
Wind 5 kt uit het oosten

TAF: MYNN 230430Z 2306/2406 VRB02KT 9999 FEW015CB BECMG 2312/2314 09005KT

Waarnemingen en weersverwachtingen van meer dan 4000 vliegvelden (METAR en TAF).

De beschikbare stations zijn de gele en rode punten op de kaart.

Ga met uw muis naar het station om de naam te zien.

Klik dan om waarnemingen en weersverwachtingen te zien.

kaart wijzigen: klik op de groene knoppen met een zwart kruis om in te zoomen, op de groene knop met een streepje om uit te zoomen of op de groene pijlen voor aangrenzende kaarten.


METAR-TAF: